createdAt,value
2022-08-17T00:00:43.626Z,22.90
2022-08-17T00:05:43.744Z,22.95
2022-08-17T00:10:50.617Z,22.89
2022-08-17T00:15:57.965Z,22.86
2022-08-17T00:21:02.687Z,22.81
2022-08-17T00:26:08.842Z,22.83
2022-08-17T00:31:13.411Z,22.74
2022-08-17T00:36:17.389Z,22.65
2022-08-17T00:41:25.957Z,22.63
2022-08-17T00:46:32.451Z,22.72
2022-08-17T00:51:43.748Z,22.79
2022-08-17T00:56:58.161Z,22.79
2022-08-17T01:02:02.663Z,22.72
2022-08-17T01:07:08.285Z,22.79
2022-08-17T01:12:13.681Z,22.81
2022-08-17T01:17:17.514Z,22.78
2022-08-17T01:22:24.332Z,22.74
2022-08-17T01:27:28.851Z,22.74
2022-08-17T01:32:32.868Z,22.69
2022-08-17T01:37:40.084Z,22.68
2022-08-17T01:42:47.921Z,22.56
2022-08-17T01:47:52.087Z,22.58
2022-08-17T01:53:01.568Z,22.40
2022-08-17T01:58:09.669Z,22.24
2022-08-17T02:03:13.225Z,22.30
2022-08-17T02:08:20.423Z,22.27
2022-08-17T02:13:36.054Z,22.18
2022-08-17T02:18:39.485Z,22.23
2022-08-17T02:23:48.551Z,22.22
2022-08-17T02:28:52.175Z,22.08
2022-08-17T02:34:00.459Z,22.08
2022-08-17T02:39:12.704Z,22.09
2022-08-17T02:44:35.487Z,22.08
2022-08-17T02:49:40.118Z,22.07
2022-08-17T02:54:45.231Z,21.94
2022-08-17T02:59:49.239Z,21.90
2022-08-17T03:04:52.769Z,21.92
2022-08-17T03:09:57.646Z,22.01
2022-08-17T03:15:04.582Z,21.94
2022-08-17T03:20:09.544Z,22.00
2022-08-17T03:25:16.845Z,22.05
2022-08-17T03:30:26.242Z,22.08
2022-08-17T03:35:32.232Z,22.14
2022-08-17T03:40:59.130Z,22.17
2022-08-17T03:46:34.266Z,22.07
2022-08-17T03:51:56.391Z,22.06
2022-08-17T03:57:06.028Z,22.01
2022-08-17T04:02:12.955Z,22.00
2022-08-17T04:07:16.467Z,22.02
2022-08-17T04:12:23.989Z,22.04
2022-08-17T04:17:29.279Z,22.21
2022-08-17T04:22:34.409Z,22.29
2022-08-17T04:27:39.404Z,22.43
2022-08-17T04:33:10.584Z,22.52
2022-08-17T04:38:15.913Z,22.67
2022-08-17T04:43:22.976Z,22.75
2022-08-17T04:48:35.332Z,22.88
2022-08-17T04:53:40.529Z,23.06
2022-08-17T04:58:46.826Z,23.25
2022-08-17T05:03:50.667Z,23.42
2022-08-17T05:08:55.366Z,23.59
2022-08-17T05:14:00.832Z,23.77
2022-08-17T05:19:05.202Z,24.02
2022-08-17T05:24:16.751Z,24.26
2022-08-17T05:29:35.811Z,24.70
2022-08-17T05:34:39.434Z,24.94
2022-08-17T05:39:42.969Z,25.24
2022-08-17T05:44:48.061Z,25.41
2022-08-17T05:49:51.649Z,25.71
2022-08-17T05:55:10.124Z,25.86
2022-08-17T06:00:20.391Z,25.95
2022-08-17T06:05:37.359Z,26.15
2022-08-17T06:10:48.762Z,26.34
2022-08-17T06:16:03.459Z,26.64
2022-08-17T06:21:13.204Z,26.75
2022-08-17T06:26:22.409Z,26.93
2022-08-17T06:31:36.848Z,27.16
2022-08-17T06:36:50.688Z,27.34
2022-08-17T06:42:06.961Z,27.53
2022-08-17T06:47:15.761Z,27.52
2022-08-17T06:52:45.316Z,27.72
2022-08-17T06:57:53.148Z,28.16
2022-08-17T07:03:03.862Z,28.46
2022-08-17T07:08:18.710Z,28.77
2022-08-17T07:13:33.247Z,29.13
2022-08-17T07:18:38.407Z,29.34
2022-08-17T07:23:56.260Z,29.61
2022-08-17T07:29:02.460Z,29.81
2022-08-17T07:34:14.634Z,30.11
2022-08-17T07:39:28.948Z,30.12
2022-08-17T07:44:32.574Z,30.32
2022-08-17T07:49:41.195Z,30.33
2022-08-17T07:54:44.705Z,30.57
2022-08-17T08:00:31.413Z,30.68
2022-08-17T08:05:50.958Z,31.01
2022-08-17T08:11:07.783Z,31.18
2022-08-17T08:16:22.756Z,31.47
2022-08-17T08:21:47.894Z,31.71
2022-08-17T08:26:59.418Z,31.82
2022-08-17T08:32:13.329Z,31.88
2022-08-17T08:37:34.559Z,32.24
2022-08-17T08:42:47.152Z,32.41
2022-08-17T08:48:23.084Z,32.41
2022-08-17T08:53:48.671Z,32.74
2022-08-17T08:58:59.534Z,33.02
2022-08-17T09:04:25.573Z,32.99
2022-08-17T09:09:48.040Z,33.08
2022-08-17T09:14:59.607Z,33.00
2022-08-17T09:20:27.180Z,32.42
2022-08-17T09:25:43.379Z,32.30
2022-08-17T09:30:49.490Z,31.96
2022-08-17T09:35:57.348Z,32.75
2022-08-17T09:41:17.677Z,33.55
2022-08-17T09:46:26.667Z,34.13
2022-08-17T09:51:34.814Z,33.84
2022-08-17T09:57:11.490Z,32.77
2022-08-17T10:02:32.437Z,32.30
2022-08-17T10:07:46.627Z,33.57
2022-08-17T10:12:58.284Z,34.18
2022-08-17T10:18:18.501Z,34.55
2022-08-17T10:23:44.753Z,34.96
2022-08-17T10:28:53.962Z,33.28
2022-08-17T10:34:13.251Z,33.60
2022-08-17T10:39:31.809Z,34.29
2022-08-17T10:44:50.248Z,33.61
2022-08-17T10:49:56.107Z,33.55
2022-08-17T10:55:15.276Z,32.73
2022-08-17T11:01:02.349Z,32.31
2022-08-17T11:06:19.526Z,32.16
2022-08-17T11:12:01.500Z,31.86
2022-08-17T11:17:16.726Z,31.59
2022-08-17T11:23:11.504Z,28.11
2022-08-17T11:28:23.241Z,28.50
2022-08-17T11:33:57.862Z,28.51
2022-08-17T11:39:19.461Z,28.34
2022-08-17T11:44:37.824Z,28.43
2022-08-17T11:50:15.111Z,28.29
2022-08-17T11:55:54.284Z,27.82
2022-08-17T12:01:00.959Z,28.38
2022-08-17T12:06:08.240Z,28.31
2022-08-17T12:11:19.044Z,29.33
2022-08-17T12:16:44.789Z,30.91
2022-08-17T12:21:53.882Z,32.17
2022-08-17T12:27:00.246Z,32.40
2022-08-17T12:32:08.493Z,32.99
2022-08-17T12:37:16.720Z,33.13
2022-08-17T12:42:25.812Z,33.29
2022-08-17T12:47:31.950Z,32.94
2022-08-17T12:52:39.679Z,32.26
2022-08-17T12:57:45.887Z,31.34
2022-08-17T13:02:52.867Z,31.07
2022-08-17T13:07:58.626Z,31.10
2022-08-17T13:13:05.460Z,31.14
2022-08-17T13:18:31.712Z,30.95
2022-08-17T13:23:35.557Z,30.67
2022-08-17T13:28:39.156Z,30.63
2022-08-17T13:33:45.094Z,30.61
2022-08-17T13:38:51.080Z,30.59
2022-08-17T13:43:54.657Z,30.68
2022-08-17T13:49:02.288Z,30.97
2022-08-17T13:54:20.239Z,32.17
2022-08-17T13:59:53.900Z,32.96
2022-08-17T14:04:55.972Z,32.95
2022-08-17T14:10:02.483Z,33.16
2022-08-17T14:15:07.780Z,32.59
2022-08-17T14:20:15.174Z,31.87
2022-08-17T14:25:21.087Z,31.61
2022-08-17T14:30:28.991Z,31.04
2022-08-17T14:41:26.607Z,30.23
2022-08-17T14:46:30.350Z,30.04
2022-08-17T14:51:33.831Z,29.71
2022-08-17T14:56:38.818Z,29.55
2022-08-17T15:01:43.059Z,29.43
2022-08-17T15:06:47.470Z,29.34
2022-08-17T15:11:53.330Z,29.18
2022-08-17T15:16:56.800Z,29.03
2022-08-17T15:22:00.395Z,29.31
2022-08-17T15:27:06.068Z,29.05
2022-08-17T15:32:09.834Z,28.87
2022-08-17T15:37:13.695Z,28.69
2022-08-17T15:42:19.077Z,28.50
2022-08-17T15:47:23.527Z,28.65
2022-08-17T15:52:29.799Z,28.58
2022-08-17T15:57:35.583Z,28.31
2022-08-17T16:03:20.363Z,28.17
2022-08-17T16:08:03.276Z,28.18
2022-08-17T16:13:17.324Z,28.05
2022-08-17T16:18:21.931Z,28.02
2022-08-17T16:23:25.725Z,27.77
2022-08-17T16:28:35.922Z,27.39
2022-08-17T16:33:40.591Z,27.26
2022-08-17T16:38:44.585Z,25.85
2022-08-17T16:43:51.109Z,25.12
2022-08-17T16:48:54.856Z,24.58
2022-08-17T16:53:59.476Z,24.15
2022-08-17T16:59:29.930Z,23.87
2022-08-17T17:04:35.131Z,23.25
2022-08-17T17:09:40.339Z,23.28
2022-08-17T17:14:59.361Z,23.50
2022-08-17T17:20:09.795Z,23.82
2022-08-17T17:25:20.593Z,23.97
2022-08-17T17:30:29.283Z,23.66
2022-08-17T17:35:37.204Z,23.60
2022-08-17T17:40:45.021Z,23.56
2022-08-17T17:45:55.097Z,23.62
2022-08-17T17:52:08.500Z,23.83
2022-08-17T17:56:51.621Z,24.02
2022-08-17T18:02:04.554Z,23.98
2022-08-17T18:07:18.956Z,23.92
2022-08-17T18:12:31.824Z,23.96
2022-08-17T18:17:36.747Z,23.84
2022-08-17T18:22:40.148Z,23.76
2022-08-17T18:27:52.374Z,23.63
2022-08-17T18:33:23.890Z,23.69
2022-08-17T18:38:30.785Z,23.65
2022-08-17T18:43:52.867Z,23.65
2022-08-17T18:49:00.916Z,23.70
2022-08-17T18:54:15.861Z,23.66
2022-08-17T18:59:41.106Z,23.53
2022-08-17T19:05:02.054Z,23.48
2022-08-17T19:10:46.574Z,23.43
2022-08-17T19:16:12.248Z,23.33
2022-08-17T19:21:24.325Z,23.34
2022-08-17T19:26:53.690Z,23.38
2022-08-17T19:31:58.929Z,23.27
2022-08-17T19:37:11.200Z,23.24
2022-08-17T19:42:33.086Z,23.20
2022-08-17T19:47:55.125Z,23.28
2022-08-17T19:53:09.621Z,23.16
2022-08-17T19:58:34.656Z,23.20
2022-08-17T20:03:52.214Z,23.08
2022-08-17T20:09:02.573Z,22.89
2022-08-17T20:14:11.284Z,22.96
2022-08-17T20:19:23.791Z,22.87
2022-08-17T20:24:38.223Z,22.87
2022-08-17T20:30:10.674Z,22.75
2022-08-17T20:35:24.559Z,22.65
2022-08-17T20:40:36.407Z,22.72
2022-08-17T20:46:07.791Z,22.55
2022-08-17T20:51:19.365Z,22.75
2022-08-17T20:56:50.538Z,22.82
2022-08-17T21:02:19.036Z,22.64
2022-08-17T21:07:30.178Z,22.51
2022-08-17T21:12:43.578Z,22.45
2022-08-17T21:17:51.598Z,22.53
2022-08-17T21:23:12.345Z,22.41
2022-08-17T21:28:33.925Z,22.32
2022-08-17T21:33:40.874Z,22.41
2022-08-17T21:38:57.799Z,22.45
2022-08-17T21:44:12.353Z,22.51
2022-08-17T21:49:18.026Z,22.42
2022-08-17T21:54:31.428Z,22.27
2022-08-17T21:59:40.073Z,22.33
2022-08-17T22:04:44.501Z,22.30
2022-08-17T22:09:50.124Z,22.09
2022-08-17T22:15:02.614Z,22.00
2022-08-17T22:20:10.632Z,22.03
2022-08-17T22:25:25.923Z,22.04
2022-08-17T22:30:42.552Z,21.99
2022-08-17T22:35:47.974Z,22.07
2022-08-17T22:40:53.969Z,22.01
2022-08-17T22:46:01.038Z,22.04
2022-08-17T22:51:12.882Z,22.07
2022-08-17T22:56:37.692Z,22.04
2022-08-17T23:01:43.781Z,22.05
2022-08-17T23:06:47.161Z,22.05
2022-08-17T23:11:55.571Z,22.08
2022-08-17T23:17:00.826Z,22.15
2022-08-17T23:22:07.911Z,22.25
2022-08-17T23:27:12.232Z,22.28
2022-08-17T23:32:19.562Z,22.29
2022-08-17T23:37:23.013Z,22.30
2022-08-17T23:42:27.658Z,22.22
2022-08-17T23:47:32.812Z,22.18
2022-08-17T23:52:37.923Z,22.14
2022-08-17T23:57:41.690Z,22.15
